LQSALDDU

Guest
Details From LQSA - Sarajevo
To LDDU - DUBROVNIK
Flight Number -
Tags generated
Created
Modified
Stats Distance 76 nm / 141 km
Max Altitude 500 ft / 152 m
Waypoints 3
Social Downloads 4
Likes 0
Share VATSIM

Download

Looking for another format? Having issues loading an existing format? Contact us
Advertisement - Login to hide

Notes

Basic altitude profile: - Ascent Rate: 2500ft/min - Ascent Speed: 250kts - Cruise Altitude: 35000ft - Cruise Speed: 420kts - Descent Rate: 1500ft/min - Descent Speed: 250kts

Route

LQSA MADOS LDDU

ID Type Via Altitude Latitude Longitude Leg Dist Tot Dist Heading (true) Name
O LQSA APT - 0 ft / 0 m 43.82460˚ 18.33150˚ - 0 nm - Sarajevo
MADOS FIX - 500 ft / 152 m 42.60250˚ 18.24917˚ 73 nm 73 nm 183° / 183° -
O LDDU APT - 0 ft / 0 m 42.56284˚ 18.26450˚ 2 nm 75 nm 164° / 164° DUBROVNIK

Altitude Profile

Advertisement - Login to hide

LQSA

Details ICAO LQSA (SJJ)
Name Sarajevo
Region Bosnia and Herzegovinia
Timezone Europe/Sarajevo (UTC+1.0)
Stats Elevation 1,708 ft / 521 m (AMSL)
Location 43.824597° 18.331500°
Runways 1
Magnetic Variation 4.222° E

METAR

LQSA 140200Z 10003KT 0200 R12/0200N FG VV001 02/02 Q1012

Decode

TAF

Not found

Departure Runways

ID Width Length Bearing (true) Bearing (mag) Surface Threshold Offset Overrun Length
12 150 ft / 46 m 8,519 ft / 2,597 m 117.41° 113.19° Asphalt 333 ft / 102 m 0 ft / 0 m
30 150 ft / 46 m 8,519 ft / 2,597 m 297.43° 293.21° Asphalt 666 ft / 203 m 0 ft / 0 m

LDDU

Details ICAO LDDU (DBV)
Name DUBROVNIK
Region Croatia
Timezone Europe/Zagreb (UTC+1.0)
Stats Elevation 527 ft / 161 m (AMSL)
Location 42.562840° 18.264499°
Runways 1
Magnetic Variation 4.100° E

METAR

LDDU 140230Z 08009KT 9999 -RA BKN027 07/07 Q1015

Decode

TAF

TAF LDDU 132325Z 1400/1500 08005KT 9999 SCT030 TX12/1412Z TN06/1406Z BECMG 1407/1409 12008KT PROB40 TEMPO 1414/1500 BKN010 OVC030 PROB30 TEMPO 1414/1419 RA

Decode

Destination Runways

ID Width Length Bearing (true) Bearing (mag) Surface Threshold Offset Overrun Length
12 148 ft / 45 m 10,803 ft / 3,293 m 118.30° 114.20° Asphalt 488 ft / 149 m 100 ft / 30 m
30 148 ft / 45 m 10,803 ft / 3,293 m 298.33° 294.23° Asphalt 0 ft / 0 m 100 ft / 30 m

Approach Navaids

Runway Type Ident Frequency Range Bearing (true) Bearing (mag) Slope Elevation
12 Localiser IDU 110.10 MHz 25 nm / 46 km 118.21° 114.11° - 469 ft / 143 m (AMSL)
12 Glidescope IDU 110.10 MHz 25 nm / 46 km 118.21° 114.11° 3.00° 502 ft / 153 m (AMSL)

Popular Alternatives